This is the latest recevied weather packets stored in our database for station/object W1SGB. If no packets are shown the sender has not sent any weather packets the latest 10 day(s).
| Time | Temp. | Humidity | Pressure | Rain* | Wind** | Luminosity | Snow |
|---|---|---|---|---|---|---|---|
| 1778079620 | 20° C | 66% | 1010.2 hPa | 0 mm | - | 342 W/m² | - |
| 1778077219 | 19.44° C | 68% | 1010.2 hPa | 0 mm | - | 234 W/m² | - |
| 1778067016 | 15° C | 84% | 1010.9 hPa | 0 mm | - | 24 W/m² | - |
| 1778057424 | 14.44° C | 83% | 1010.7 hPa | 0 mm | - | 0 W/m² | - |
| 1778055625 | 14.44° C | 83% | 1010.9 hPa | 0 mm | - | 0 W/m² | - |
| 1778053224 | 15° C | 81% | 1011 hPa | 0 mm | - | 0 W/m² | - |
| 1778049021 | 15.56° C | 78% | 1010.7 hPa | 0 mm | - | 0 W/m² | - |
| 1778043622 | 16.67° C | 73% | 1011.1 hPa | 0 mm | - | 0 W/m² | - |
| 1778037019 | 16.67° C | 69% | 1011 hPa | 0 mm | - | 0 W/m² | - |
| 1778036419 | 17.22° C | 69% | 1011 hPa | 0 mm | - | 0 W/m² | - |
| 1778035220 | 16.67° C | 69% | 1011 hPa | 0 mm | - | 0 W/m² | - |
| 1778024419 | 18.89° C | 62% | 1009.5 hPa | 0 mm | - | 6 W/m² | - |
| 1778023220 | 20° C | 59% | 1009.3 hPa | 0 mm | - | 23 W/m² | - |
| 1778020817 | 21.67° C | 54% | 1008.3 hPa | 0 mm | - | 67 W/m² | - |
| 1778018417 | 22.78° C | 52% | 1008.4 hPa | 0 mm | - | 167 W/m² | - |
| 1778015419 | 24.44° C | 50% | 1008.2 hPa | 0 mm | - | 339 W/m² | - |
| 1778010620 | 26.67° C | 46% | 1008.1 hPa | 0 mm | - | 636 W/m² | - |
| 1778006419 | 27.78° C | 43% | 1008.2 hPa | 0 mm | - | 811 W/m² | - |
| 1778005218 | 27.22° C | 44% | 1008.3 hPa | 0 mm | - | 847 W/m² | - |
| 1778004039 | 26.11° C | 46% | 1008.8 hPa | 0 mm | - | 872 W/m² | - |
| 1777999817 | 25.56° C | 45% | 1009.4 hPa | 0 mm | - | 600 W/m² | - |
| 1777995658 | 22.78° C | 51% | 1010.4 hPa | 0 mm | - | 398 W/m² | - |
| 1777991428 | 18.89° C | 61% | 1010.5 hPa | 0 mm | - | 161 W/m² | - |
| 1777988429 | 17.78° C | 65% | 1010.8 hPa | 0 mm | - | 159 W/m² | - |
| 1777982431 | 14.44° C | 74% | 1010.9 hPa | 0 mm | - | 46 W/m² | - |
* Rain latest hour (hover to see other rain measurements)
** Current wind speed in m/s (hover to see current wind gust speed)